createdAt,value
2023-01-30T00:01:22.593Z,12.80
2023-01-30T00:03:30.002Z,12.80
2023-01-30T00:05:36.926Z,12.80
2023-01-30T00:07:44.156Z,12.80
2023-01-30T00:09:50.977Z,12.90
2023-01-30T00:11:58.108Z,12.90
2023-01-30T00:14:04.983Z,12.90
2023-01-30T00:16:13.017Z,12.90
2023-01-30T00:18:21.651Z,12.90
2023-01-30T00:20:28.866Z,13.00
2023-01-30T00:22:35.759Z,12.90
2023-01-30T00:24:43.047Z,12.90
2023-01-30T00:26:50.034Z,12.90
2023-01-30T00:28:57.201Z,13.00
2023-01-30T00:31:04.279Z,13.00
2023-01-30T00:33:13.916Z,13.00
2023-01-30T00:35:22.531Z,13.10
2023-01-30T00:37:32.173Z,13.20
2023-01-30T00:39:39.096Z,13.20
2023-01-30T00:42:02.819Z,13.20
2023-01-30T00:44:27.405Z,13.30
2023-01-30T00:46:49.489Z,13.30
2023-01-30T00:48:56.309Z,13.40
2023-01-30T00:51:05.441Z,13.40
2023-01-30T00:53:13.391Z,13.50
2023-01-30T00:55:20.723Z,13.60
2023-01-30T00:57:27.647Z,13.60
2023-01-30T00:59:34.728Z,13.70
2023-01-30T01:01:41.663Z,13.70
2023-01-30T01:03:48.782Z,13.80
2023-01-30T01:05:55.764Z,13.80
2023-01-30T01:08:04.886Z,13.90
2023-01-30T01:10:17.392Z,14.00
2023-01-30T01:12:24.931Z,14.00
2023-01-30T01:14:32.010Z,14.10
2023-01-30T01:16:39.790Z,14.20
2023-01-30T01:18:46.684Z,14.30
2023-01-30T01:20:53.861Z,14.40
2023-01-30T01:23:02.839Z,14.40
2023-01-30T01:25:11.113Z,14.50
2023-01-30T01:27:20.474Z,14.70
2023-01-30T01:29:28.628Z,14.70
2023-01-30T01:31:37.956Z,14.80
2023-01-30T01:33:45.151Z,14.90
2023-01-30T01:35:52.278Z,15.00
2023-01-30T01:37:59.661Z,15.10
2023-01-30T01:40:25.878Z,15.20
2023-01-30T01:42:36.602Z,15.20
2023-01-30T01:45:03.700Z,15.30
2023-01-30T01:47:12.989Z,15.40
2023-01-30T01:49:24.873Z,15.50
2023-01-30T01:51:33.029Z,15.60
2023-01-30T01:53:46.768Z,15.70
2023-01-30T01:55:59.221Z,15.70
2023-01-30T01:58:12.244Z,15.80
2023-01-30T02:00:21.520Z,15.80
2023-01-30T02:02:29.112Z,15.90
2023-01-30T02:04:53.583Z,16.00
2023-01-30T02:07:00.420Z,16.10
2023-01-30T02:09:11.709Z,16.20
2023-01-30T02:11:28.914Z,16.30
2023-01-30T02:13:37.019Z,16.30
2023-01-30T02:15:44.238Z,16.40
2023-01-30T02:17:51.667Z,16.40
2023-01-30T02:20:03.991Z,16.50
2023-01-30T02:22:38.715Z,16.60
2023-01-30T02:25:12.147Z,16.70
2023-01-30T02:27:30.308Z,16.70
2023-01-30T02:30:25.599Z,16.90
2023-01-30T02:32:40.575Z,17.00
2023-01-30T02:34:55.278Z,17.20
2023-01-30T02:37:10.246Z,17.20
2023-01-30T02:39:26.343Z,17.30
2023-01-30T02:41:45.243Z,17.40
2023-01-30T02:44:01.639Z,17.50
2023-01-30T02:46:15.456Z,17.60
2023-01-30T02:48:28.444Z,17.70
2023-01-30T02:50:40.696Z,17.80
2023-01-30T02:52:47.826Z,17.80
2023-01-30T02:54:57.106Z,17.90
2023-01-30T02:57:04.439Z,18.00
2023-01-30T02:59:11.828Z,18.00
2023-01-30T03:01:59.203Z,18.10
2023-01-30T03:04:28.812Z,18.30
2023-01-30T03:06:53.279Z,18.40
2023-01-30T03:09:10.777Z,18.50
2023-01-30T03:11:17.781Z,18.60
2023-01-30T03:13:31.285Z,18.70
2023-01-30T03:15:42.073Z,18.80
2023-01-30T03:17:51.065Z,18.90
2023-01-30T03:20:00.860Z,18.90
2023-01-30T03:22:08.448Z,19.00
2023-01-30T03:24:16.143Z,19.00
2023-01-30T03:26:26.766Z,19.10
2023-01-30T03:28:33.867Z,19.20
2023-01-30T03:30:41.301Z,19.30
2023-01-30T03:32:49.577Z,19.40
2023-01-30T03:34:59.064Z,19.50
2023-01-30T03:37:07.016Z,19.60
2023-01-30T03:39:15.787Z,19.70
2023-01-30T03:41:23.205Z,19.80
2023-01-30T03:43:30.297Z,19.90
2023-01-30T03:45:37.288Z,20.00
2023-01-30T03:47:44.986Z,20.10
2023-01-30T03:49:52.150Z,20.10
2023-01-30T03:52:01.077Z,20.20
2023-01-30T03:54:08.407Z,20.30
2023-01-30T03:56:16.135Z,20.40
2023-01-30T03:58:23.950Z,20.50
2023-01-30T04:00:31.591Z,20.50
2023-01-30T04:02:40.521Z,20.60
2023-01-30T04:04:47.899Z,20.70
2023-01-30T04:06:54.930Z,20.70
2023-01-30T04:09:03.611Z,20.70
2023-01-30T04:11:23.370Z,20.80
2023-01-30T04:13:30.961Z,20.90
2023-01-30T04:15:38.551Z,20.90
2023-01-30T04:18:05.499Z,21.10
2023-01-30T04:20:26.707Z,21.20
2023-01-30T04:22:35.834Z,21.30
2023-01-30T04:24:45.115Z,21.40
2023-01-30T04:26:52.041Z,21.50
2023-01-30T04:28:59.375Z,21.60
2023-01-30T04:31:08.548Z,21.70
2023-01-30T04:33:38.062Z,21.80
2023-01-30T04:35:54.558Z,21.80
2023-01-30T04:38:01.800Z,22.00
2023-01-30T04:40:11.999Z,21.90
2023-01-30T04:42:19.226Z,21.90
2023-01-30T04:44:45.710Z,22.00
2023-01-30T04:46:58.729Z,22.10
2023-01-30T04:49:05.721Z,22.10
2023-01-30T04:51:13.194Z,22.10
2023-01-30T04:53:21.505Z,22.20
2023-01-30T04:55:30.834Z,22.30
2023-01-30T04:57:37.764Z,22.30
2023-01-30T04:59:45.044Z,22.40
2023-01-30T05:01:56.209Z,22.40
2023-01-30T05:04:03.899Z,22.50
2023-01-30T05:06:11.149Z,22.40
2023-01-30T05:08:18.530Z,22.50
2023-01-30T05:10:25.696Z,22.40
2023-01-30T05:12:34.576Z,22.50
2023-01-30T05:14:42.379Z,22.50
2023-01-30T05:16:49.619Z,22.60
2023-01-30T05:18:56.645Z,22.60
2023-01-30T05:21:10.735Z,22.70
2023-01-30T05:23:17.627Z,22.80
2023-01-30T05:25:24.789Z,22.90
2023-01-30T05:27:33.463Z,23.00
2023-01-30T05:29:42.992Z,23.00
2023-01-30T05:31:50.629Z,23.10
2023-01-30T05:33:57.726Z,23.20
2023-01-30T05:36:04.935Z,23.20
2023-01-30T05:38:11.778Z,23.20
2023-01-30T05:40:19.008Z,23.20
2023-01-30T05:42:25.816Z,23.10
2023-01-30T05:44:34.749Z,23.20
2023-01-30T05:46:41.731Z,23.20
2023-01-30T05:48:48.906Z,23.30
2023-01-30T05:50:56.157Z,23.30
2023-01-30T05:53:03.167Z,23.40
2023-01-30T05:55:10.912Z,23.40
2023-01-30T05:57:18.075Z,23.40
2023-01-30T05:59:25.123Z,23.40
2023-01-30T06:01:34.920Z,23.50
2023-01-30T06:03:42.097Z,23.50
2023-01-30T06:05:49.481Z,23.40
2023-01-30T06:07:56.413Z,23.40
2023-01-30T06:10:03.644Z,23.50
2023-01-30T06:12:11.441Z,23.50
2023-01-30T06:14:18.621Z,23.60
2023-01-30T06:16:25.549Z,23.70
2023-01-30T06:18:34.516Z,23.70
2023-01-30T06:20:41.438Z,23.80
2023-01-30T06:22:48.631Z,23.80
2023-01-30T06:24:55.552Z,23.90
2023-01-30T06:27:03.546Z,23.90
2023-01-30T06:29:12.578Z,23.80
2023-01-30T06:31:20.097Z,23.80
2023-01-30T06:33:27.965Z,23.90
2023-01-30T06:35:36.843Z,23.90
2023-01-30T06:37:43.811Z,23.90
2023-01-30T06:39:51.304Z,23.90
2023-01-30T06:41:58.278Z,24.10
2023-01-30T06:44:05.185Z,24.10
2023-01-30T06:46:12.419Z,24.20
2023-01-30T06:48:19.427Z,24.20
2023-01-30T06:50:28.592Z,24.30
2023-01-30T06:52:37.241Z,24.30
2023-01-30T06:54:44.334Z,24.30
2023-01-30T06:56:51.142Z,24.30
2023-01-30T06:58:58.403Z,24.30
2023-01-30T07:01:05.369Z,24.40
2023-01-30T07:03:15.169Z,24.50
2023-01-30T07:05:22.138Z,24.50
2023-01-30T07:07:29.370Z,24.60
2023-01-30T07:09:37.990Z,24.50
2023-01-30T07:11:45.171Z,24.40
2023-01-30T07:13:52.090Z,24.40
2023-01-30T07:15:59.172Z,24.40
2023-01-30T07:18:06.301Z,24.40
2023-01-30T07:20:14.612Z,24.40
2023-01-30T07:22:21.560Z,24.40
2023-01-30T07:24:28.822Z,24.40
2023-01-30T07:26:37.408Z,24.50
2023-01-30T07:28:44.463Z,24.50
2023-01-30T07:30:53.799Z,24.50
2023-01-30T07:33:03.077Z,24.50
2023-01-30T07:35:10.772Z,24.60
2023-01-30T07:37:18.003Z,24.60
2023-01-30T07:39:25.036Z,24.60
2023-01-30T07:41:31.872Z,24.70
2023-01-30T07:43:40.726Z,24.70
2023-01-30T07:45:49.590Z,24.70
2023-01-30T07:48:02.109Z,24.70
2023-01-30T07:50:10.107Z,24.80
2023-01-30T07:52:17.378Z,24.80
2023-01-30T07:54:24.248Z,24.90
2023-01-30T07:56:31.446Z,24.80
2023-01-30T07:58:40.008Z,24.80
2023-01-30T08:00:47.345Z,24.90
2023-01-30T08:02:54.217Z,25.00
2023-01-30T08:05:01.399Z,25.00
2023-01-30T08:07:08.324Z,24.90
2023-01-30T08:09:15.455Z,24.90
2023-01-30T08:11:22.382Z,24.90
2023-01-30T08:13:29.560Z,24.90
2023-01-30T08:15:38.437Z,24.90
2023-01-30T08:17:45.614Z,24.90
2023-01-30T08:19:52.489Z,24.90
2023-01-30T08:21:59.623Z,25.00
2023-01-30T08:24:06.550Z,25.00
2023-01-30T08:26:13.813Z,25.00
2023-01-30T08:28:20.756Z,25.00
2023-01-30T08:30:28.338Z,25.00
2023-01-30T08:32:37.065Z,25.00
2023-01-30T08:34:44.605Z,25.00
2023-01-30T08:36:53.124Z,24.90
2023-01-30T08:39:00.299Z,25.00
2023-01-30T08:41:09.479Z,25.00
2023-01-30T08:43:16.639Z,25.00
2023-01-30T08:45:23.670Z,25.00
2023-01-30T08:47:30.770Z,25.00
2023-01-30T08:49:39.381Z,25.00
2023-01-30T08:51:46.601Z,25.00
2023-01-30T08:53:53.441Z,24.90
2023-01-30T08:56:00.676Z,24.90
2023-01-30T08:58:07.581Z,24.90
2023-01-30T09:00:15.953Z,24.90
2023-01-30T09:02:24.116Z,25.00
2023-01-30T09:04:33.392Z,24.90
2023-01-30T09:06:42.319Z,24.90
2023-01-30T09:08:49.484Z,24.80
2023-01-30T09:10:56.317Z,24.80
2023-01-30T09:13:03.551Z,24.80
2023-01-30T09:15:11.808Z,24.80
2023-01-30T09:17:18.987Z,24.80
2023-01-30T09:19:26.018Z,24.80
2023-01-30T09:21:33.201Z,24.80
2023-01-30T09:23:42.124Z,24.80
2023-01-30T09:25:49.608Z,24.80
2023-01-30T09:27:56.584Z,24.70
2023-01-30T09:30:03.720Z,24.70
2023-01-30T09:32:11.511Z,24.60
2023-01-30T09:34:18.795Z,24.60
2023-01-30T09:36:25.721Z,24.60
2023-01-30T09:38:33.064Z,24.50
2023-01-30T09:40:49.298Z,24.50
2023-01-30T09:43:22.494Z,24.50
2023-01-30T09:45:44.941Z,24.40
2023-01-30T09:47:58.307Z,24.40
2023-01-30T09:50:22.640Z,24.50
2023-01-30T09:52:38.378Z,24.50
2023-01-30T09:54:48.318Z,24.50
2023-01-30T09:57:04.650Z,24.50
2023-01-30T09:59:20.582Z,24.40
2023-01-30T10:01:36.317Z,24.40
2023-01-30T10:03:51.453Z,24.40
2023-01-30T10:06:00.322Z,24.20
2023-01-30T10:08:23.896Z,24.20
2023-01-30T10:10:44.640Z,24.10
2023-01-30T10:13:04.522Z,24.10
2023-01-30T10:15:28.375Z,24.00
2023-01-30T10:17:43.306Z,24.00
2023-01-30T10:20:10.507Z,24.00
2023-01-30T10:22:32.997Z,24.00
2023-01-30T10:24:49.394Z,23.90
2023-01-30T10:26:57.705Z,23.90
2023-01-30T10:29:09.435Z,23.90
2023-01-30T10:31:19.579Z,23.80
2023-01-30T10:33:31.433Z,23.80
2023-01-30T10:35:41.637Z,23.70
2023-01-30T10:37:56.442Z,23.70
2023-01-30T10:40:16.155Z,23.70
2023-01-30T10:42:30.761Z,23.70
2023-01-30T10:44:39.390Z,23.70
2023-01-30T10:47:04.849Z,23.60
2023-01-30T10:49:18.594Z,23.50
2023-01-30T10:51:40.449Z,23.40
2023-01-30T10:53:53.338Z,23.30
2023-01-30T10:56:07.214Z,23.30
2023-01-30T10:58:25.152Z,23.20
2023-01-30T11:00:38.017Z,23.10
2023-01-30T11:02:53.091Z,23.00
2023-01-30T11:05:02.788Z,23.00
2023-01-30T11:07:10.754Z,22.90
2023-01-30T11:09:17.749Z,22.80
2023-01-30T11:11:31.031Z,22.80
2023-01-30T11:13:38.648Z,22.70
2023-01-30T11:15:49.728Z,22.60
2023-01-30T11:19:01.788Z,22.60
2023-01-30T11:20:41.841Z,22.50
2023-01-30T11:22:51.482Z,22.40
2023-01-30T11:25:10.582Z,22.30
2023-01-30T11:27:22.227Z,22.20
2023-01-30T11:29:32.127Z,22.10
2023-01-30T11:31:44.111Z,22.00
2023-01-30T11:34:03.634Z,21.80
2023-01-30T11:36:27.967Z,21.70
2023-01-30T11:38:36.175Z,21.60
2023-01-30T11:40:44.020Z,21.40
2023-01-30T11:42:53.675Z,21.30
2023-01-30T11:45:16.641Z,21.20
2023-01-30T11:47:28.703Z,21.10
2023-01-30T11:49:46.975Z,21.00
2023-01-30T11:52:09.644Z,20.80
2023-01-30T11:54:19.031Z,20.80
2023-01-30T11:56:29.789Z,20.70
2023-01-30T11:58:39.691Z,20.60
2023-01-30T12:00:50.502Z,20.50
2023-01-30T12:03:07.707Z,20.40
2023-01-30T12:05:26.774Z,20.30
2023-01-30T12:07:35.341Z,20.30
2023-01-30T12:09:42.578Z,20.10
2023-01-30T12:11:49.606Z,20.10
2023-01-30T12:13:58.530Z,20.00
2023-01-30T12:16:21.799Z,19.90
2023-01-30T12:18:37.927Z,19.90
2023-01-30T12:20:54.349Z,19.80
2023-01-30T12:23:12.923Z,19.70
2023-01-30T12:25:26.350Z,19.70
2023-01-30T12:27:47.460Z,19.60
2023-01-30T12:30:03.550Z,19.50
2023-01-30T12:32:16.228Z,19.40
2023-01-30T12:34:27.611Z,19.40
2023-01-30T12:36:37.586Z,19.30
2023-01-30T12:39:08.526Z,19.30
2023-01-30T12:41:36.003Z,19.20
2023-01-30T12:43:53.506Z,19.20
2023-01-30T12:46:11.327Z,19.20
2023-01-30T12:49:10.312Z,19.10
2023-01-30T12:51:37.075Z,19.00
2023-01-30T12:53:53.933Z,18.90
2023-01-30T12:56:31.387Z,18.80
2023-01-30T12:58:45.008Z,18.70
2023-01-30T13:01:10.279Z,18.70
2023-01-30T13:03:39.203Z,18.60
2023-01-30T13:05:54.935Z,18.60
2023-01-30T13:08:14.362Z,18.60
2023-01-30T13:10:28.805Z,18.60
2023-01-30T13:12:43.214Z,18.60
2023-01-30T13:14:57.967Z,18.50
2023-01-30T13:17:20.353Z,18.50
2023-01-30T13:19:40.718Z,18.50
2023-01-30T13:21:55.250Z,18.40
2023-01-30T13:24:17.741Z,18.40
2023-01-30T13:26:25.393Z,18.30
2023-01-30T13:28:36.762Z,18.30
2023-01-30T13:30:45.432Z,18.20
2023-01-30T13:32:54.862Z,18.20
2023-01-30T13:35:04.143Z,18.10
2023-01-30T13:37:14.707Z,18.10
2023-01-30T13:39:33.620Z,18.10
2023-01-30T13:41:45.044Z,18.00
2023-01-30T13:43:56.325Z,18.00
2023-01-30T13:46:06.776Z,18.00
2023-01-30T13:48:27.001Z,18.00
2023-01-30T13:50:49.248Z,17.90
2023-01-30T13:53:00.702Z,17.90
2023-01-30T13:55:19.113Z,17.80
2023-01-30T13:57:35.422Z,17.80
2023-01-30T14:00:02.118Z,17.70
2023-01-30T14:02:23.852Z,17.60
2023-01-30T14:04:53.080Z,17.60
2023-01-30T14:07:12.768Z,17.60
2023-01-30T14:09:28.751Z,17.50
2023-01-30T14:11:51.337Z,17.60
2023-01-30T14:14:05.380Z,17.60
2023-01-30T14:16:13.444Z,17.60
2023-01-30T14:18:27.431Z,17.60
2023-01-30T14:20:36.205Z,17.60
2023-01-30T14:22:53.879Z,17.60
2023-01-30T14:25:48.515Z,17.60
2023-01-30T14:27:59.075Z,17.50
2023-01-30T14:30:25.971Z,17.40
2023-01-30T14:32:57.993Z,17.40
2023-01-30T14:35:34.655Z,17.40
2023-01-30T14:38:12.740Z,17.40
2023-01-30T14:40:41.135Z,17.30
2023-01-30T14:43:08.122Z,17.20
2023-01-30T14:45:40.595Z,17.20
2023-01-30T14:47:50.146Z,17.20
2023-01-30T14:49:58.249Z,17.20
2023-01-30T14:52:07.242Z,17.10
2023-01-30T14:54:33.291Z,17.10
2023-01-30T14:56:52.564Z,17.10
2023-01-30T14:59:01.849Z,17.10
2023-01-30T15:01:11.548Z,17.00
2023-01-30T15:03:23.819Z,17.00
2023-01-30T15:05:37.222Z,17.00
2023-01-30T15:07:47.519Z,16.90
2023-01-30T15:10:00.140Z,16.90
2023-01-30T15:12:30.553Z,16.90
2023-01-30T15:14:43.267Z,16.90
2023-01-30T15:17:11.295Z,16.90
2023-01-30T15:19:36.123Z,16.80
2023-01-30T15:21:56.982Z,16.80
2023-01-30T15:24:26.948Z,16.70
2023-01-30T15:26:46.418Z,16.60
2023-01-30T15:29:01.299Z,16.60
2023-01-30T15:31:16.154Z,16.60
2023-01-30T15:33:31.028Z,16.60
2023-01-30T15:35:38.750Z,16.60
2023-01-30T15:37:52.585Z,16.60
2023-01-30T15:40:24.453Z,16.60
2023-01-30T15:42:31.833Z,16.60
2023-01-30T15:44:53.032Z,16.50
2023-01-30T15:47:09.644Z,16.50
2023-01-30T15:49:41.834Z,16.50
2023-01-30T15:51:48.218Z,16.50
2023-01-30T15:53:55.135Z,16.40
2023-01-30T15:56:04.745Z,16.40
2023-01-30T15:58:17.674Z,16.40
2023-01-30T16:00:30.928Z,16.40
2023-01-30T16:02:39.721Z,16.40
2023-01-30T16:04:48.620Z,16.30
2023-01-30T16:06:55.548Z,16.30
2023-01-30T16:09:04.932Z,16.20
2023-01-30T16:11:13.492Z,16.20
2023-01-30T16:13:21.259Z,16.20
2023-01-30T16:15:35.509Z,16.10
2023-01-30T16:17:43.396Z,16.10
2023-01-30T16:19:52.470Z,16.20
2023-01-30T16:22:02.218Z,16.10
2023-01-30T16:24:10.404Z,16.10
2023-01-30T16:26:22.840Z,16.10
2023-01-30T16:28:30.152Z,16.10
2023-01-30T16:30:37.187Z,16.10
2023-01-30T16:32:44.696Z,16.10
2023-01-30T16:34:53.331Z,16.10
2023-01-30T16:37:04.093Z,16.10
2023-01-30T16:39:34.880Z,16.00
2023-01-30T16:41:44.262Z,16.00
2023-01-30T16:44:09.144Z,16.00
2023-01-30T16:46:51.114Z,15.90
2023-01-30T16:49:06.897Z,15.90
2023-01-30T16:51:29.637Z,15.80
2023-01-30T16:53:36.474Z,15.80
2023-01-30T16:55:44.408Z,15.80
2023-01-30T16:57:57.531Z,15.80
2023-01-30T17:00:07.361Z,15.80
2023-01-30T17:02:30.579Z,15.70
2023-01-30T17:04:42.316Z,15.80
2023-01-30T17:06:56.617Z,15.70
2023-01-30T17:09:06.028Z,15.70
2023-01-30T17:11:12.911Z,15.70
2023-01-30T17:13:34.974Z,15.70
2023-01-30T17:15:42.122Z,15.70
2023-01-30T17:17:49.659Z,15.70
2023-01-30T17:19:56.346Z,15.70
2023-01-30T17:22:07.779Z,15.70
2023-01-30T17:24:18.016Z,15.70
2023-01-30T17:26:25.530Z,15.60
2023-01-30T17:28:32.289Z,15.60
2023-01-30T17:30:40.906Z,15.50
2023-01-30T17:32:48.294Z,15.60
2023-01-30T17:34:56.994Z,15.60
2023-01-30T17:37:05.404Z,15.60
2023-01-30T17:39:17.610Z,15.50
2023-01-30T17:41:29.441Z,15.50
2023-01-30T17:43:36.450Z,15.60
2023-01-30T17:45:43.573Z,15.60
2023-01-30T17:47:50.749Z,15.60
2023-01-30T17:49:57.611Z,15.50
2023-01-30T17:52:06.530Z,15.50
2023-01-30T17:54:13.829Z,15.50
2023-01-30T17:56:33.247Z,15.50
2023-01-30T17:58:40.480Z,15.50
2023-01-30T18:00:47.661Z,15.40
2023-01-30T18:02:54.686Z,15.40
2023-01-30T18:05:01.922Z,15.40
2023-01-30T18:07:15.559Z,15.30
2023-01-30T18:09:24.631Z,15.30
2023-01-30T18:11:31.626Z,15.30
2023-01-30T18:13:38.739Z,15.30
2023-01-30T18:15:45.664Z,15.20
2023-01-30T18:17:56.002Z,15.10
2023-01-30T18:20:04.581Z,15.10
2023-01-30T18:22:13.609Z,15.10
2023-01-30T18:24:20.437Z,15.10
2023-01-30T18:26:28.065Z,15.10
2023-01-30T18:28:35.035Z,15.20
2023-01-30T18:30:42.277Z,15.20
2023-01-30T18:32:53.288Z,15.20
2023-01-30T18:35:00.946Z,15.10
2023-01-30T18:37:07.820Z,15.10
2023-01-30T18:39:16.750Z,15.10
2023-01-30T18:41:25.058Z,15.10
2023-01-30T18:43:32.080Z,15.10
2023-01-30T18:45:38.909Z,15.10
2023-01-30T18:47:45.986Z,15.10
2023-01-30T18:49:52.939Z,15.10
2023-01-30T18:51:59.855Z,15.10
2023-01-30T18:54:06.847Z,15.00
2023-01-30T18:56:17.627Z,14.90
2023-01-30T18:58:24.705Z,14.90
2023-01-30T19:00:31.730Z,15.00
2023-01-30T19:02:38.996Z,14.80
2023-01-30T19:04:46.044Z,14.70
2023-01-30T19:06:53.123Z,14.80
2023-01-30T19:09:01.125Z,14.80
2023-01-30T19:11:29.812Z,14.70
2023-01-30T19:13:38.488Z,14.80
2023-01-30T19:15:45.592Z,14.80
2023-01-30T19:17:52.537Z,14.80
2023-01-30T19:20:02.221Z,14.80
2023-01-30T19:22:09.095Z,14.80
2023-01-30T19:24:18.119Z,14.80
2023-01-30T19:26:26.171Z,14.80
2023-01-30T19:28:34.429Z,14.80
2023-01-30T19:30:43.241Z,14.80
2023-01-30T19:32:51.200Z,14.80
2023-01-30T19:34:58.738Z,14.80
2023-01-30T19:37:05.666Z,14.80
2023-01-30T19:39:13.946Z,14.80
2023-01-30T19:41:22.690Z,14.80
2023-01-30T19:43:29.872Z,14.80
2023-01-30T19:45:36.698Z,14.70
2023-01-30T19:47:45.669Z,14.70
2023-01-30T19:49:52.906Z,14.70
2023-01-30T19:52:03.105Z,14.70
2023-01-30T19:54:11.000Z,14.70
2023-01-30T19:56:18.234Z,14.70
2023-01-30T19:58:25.111Z,14.60
2023-01-30T20:00:32.197Z,14.60
2023-01-30T20:02:39.395Z,14.50
2023-01-30T20:04:48.444Z,14.50
2023-01-30T20:06:55.522Z,14.50
2023-01-30T20:09:03.880Z,14.50
2023-01-30T20:11:12.701Z,14.50
2023-01-30T20:13:19.885Z,14.50
2023-01-30T20:15:26.707Z,14.50
2023-01-30T20:17:36.145Z,14.50
2023-01-30T20:19:42.997Z,14.50
2023-01-30T20:21:51.887Z,14.40
2023-01-30T20:23:59.222Z,14.40
2023-01-30T20:26:09.617Z,14.40
2023-01-30T20:28:16.588Z,14.40
2023-01-30T20:30:23.791Z,14.40
2023-01-30T20:32:30.648Z,14.20
2023-01-30T20:34:37.793Z,14.20
2023-01-30T20:36:44.675Z,14.10
2023-01-30T20:38:54.359Z,14.10
2023-01-30T20:41:06.167Z,14.10
2023-01-30T20:43:12.611Z,14.10
2023-01-30T20:45:19.688Z,14.20
2023-01-30T20:47:27.132Z,14.20
2023-01-30T20:49:34.005Z,14.10
2023-01-30T20:51:41.197Z,14.10
2023-01-30T20:53:53.283Z,14.00
2023-01-30T20:56:01.677Z,14.10
2023-01-30T20:58:08.462Z,14.10
2023-01-30T21:00:16.702Z,14.10
2023-01-30T21:02:23.752Z,14.10
2023-01-30T21:04:30.911Z,14.00
2023-01-30T21:06:44.048Z,14.00
2023-01-30T21:08:54.406Z,13.90
2023-01-30T21:11:08.401Z,13.90
2023-01-30T21:13:15.564Z,13.90
2023-01-30T21:15:22.400Z,13.90
2023-01-30T21:17:30.965Z,14.00
2023-01-30T21:19:41.963Z,14.00
2023-01-30T21:21:53.673Z,14.00
2023-01-30T21:24:04.467Z,14.00
2023-01-30T21:26:13.836Z,14.00
2023-01-30T21:28:21.056Z,14.00
2023-01-30T21:30:28.592Z,14.00
2023-01-30T21:32:35.469Z,14.00
2023-01-30T21:34:44.033Z,14.00
2023-01-30T21:37:11.462Z,13.90
2023-01-30T21:39:36.847Z,13.90
2023-01-30T21:42:01.243Z,13.90
2023-01-30T21:44:09.335Z,13.80
2023-01-30T21:46:19.250Z,13.80
2023-01-30T21:48:26.513Z,13.90
2023-01-30T21:50:33.378Z,13.90
2023-01-30T21:52:40.516Z,13.80
2023-01-30T21:54:49.233Z,13.80
2023-01-30T21:56:56.959Z,13.60
2023-01-30T21:59:05.237Z,13.50
2023-01-30T22:01:12.388Z,13.40
2023-01-30T22:03:19.378Z,13.40
2023-01-30T22:05:26.677Z,13.40
2023-01-30T22:07:34.797Z,13.30
2023-01-30T22:09:41.916Z,13.30
2023-01-30T22:11:50.476Z,13.20
2023-01-30T22:13:57.811Z,13.20
2023-01-30T22:16:09.289Z,13.10
2023-01-30T22:18:16.456Z,13.10
2023-01-30T22:20:23.301Z,13.00
2023-01-30T22:22:33.500Z,13.10
2023-01-30T22:24:40.578Z,13.10
2023-01-30T22:26:49.545Z,13.20
2023-01-30T22:28:59.088Z,13.30
2023-01-30T22:31:07.277Z,13.30
2023-01-30T22:33:14.169Z,13.40
2023-01-30T22:35:21.477Z,13.30
2023-01-30T22:37:28.735Z,13.30
2023-01-30T22:39:36.020Z,13.30
2023-01-30T22:41:42.948Z,13.30
2023-01-30T22:43:53.147Z,13.30
2023-01-30T22:46:04.428Z,13.10
2023-01-30T22:48:11.556Z,13.20
2023-01-30T22:50:18.640Z,13.20
2023-01-30T22:52:25.816Z,13.10
2023-01-30T22:54:32.793Z,13.10
2023-01-30T22:56:41.778Z,13.10
2023-01-30T22:58:51.307Z,13.20
2023-01-30T23:00:58.231Z,13.30
2023-01-30T23:03:05.088Z,13.30
2023-01-30T23:05:12.745Z,13.30
2023-01-30T23:07:21.827Z,13.30
2023-01-30T23:09:28.596Z,13.30
2023-01-30T23:11:37.873Z,13.30
2023-01-30T23:13:44.392Z,13.20
2023-01-30T23:15:53.365Z,13.10
2023-01-30T23:18:16.673Z,13.10
2023-01-30T23:20:23.900Z,13.10
2023-01-30T23:22:30.779Z,12.80
2023-01-30T23:24:39.063Z,12.70
2023-01-30T23:26:48.103Z,12.80
2023-01-30T23:28:55.754Z,12.70
2023-01-30T23:31:09.389Z,12.70
2023-01-30T23:33:16.773Z,12.70
2023-01-30T23:35:24.005Z,12.80
2023-01-30T23:37:43.855Z,12.90
2023-01-30T23:39:50.963Z,12.90
2023-01-30T23:41:57.790Z,12.90
2023-01-30T23:44:05.532Z,12.90
2023-01-30T23:46:22.536Z,12.90
2023-01-30T23:48:29.676Z,13.00
2023-01-30T23:50:37.615Z,13.00
2023-01-30T23:52:47.509Z,12.90
2023-01-30T23:54:54.496Z,12.90
2023-01-30T23:57:01.675Z,12.80
2023-01-30T23:59:08.917Z,12.80
